| time (UTC) | temp F | wind direction | speed knots | gust knots | rain 1hr in | rain 24hr in | rain mn in | humidity % | barometer mb |
| 20260502221006 | 51 | 0 | 0.0 | 0.0 | 0.00 | 0.07 | 0.07 | 100 | 1008.9 |
| 20260502220503 | 51 | 0 | 0.0 | 0.0 | 0.00 | 0.07 | 0.07 | 100 | 1009.1 |
| 20260502220003 | 51 | 0 | 0.0 | 0.0 | 0.00 | 0.07 | 0.07 | 100 | 1008.9 |
| 20260502215505 | 51 | 0 | 0.0 | 0.0 | 0.00 | 0.07 | 0.07 | 100 | 1008.9 |
| 20260502215218 | 51 | 0 | 0.0 | 0.0 | 0.00 | 0.07 | 0.07 | 100 | 1008.8 |
| 20260502214505 | 51 | 0 | 0.0 | 0.0 | 0.00 | 0.07 | 0.07 | 97 | 1008.8 |
| 20260502214005 | 51 | 0 | 0.0 | 0.0 | 0.00 | 0.07 | 0.07 | 97 | 1008.7 |
| 20260502213506 | 51 | 0 | 0.0 | 0.0 | 0.00 | 0.07 | 0.07 | 97 | 1008.8 |
| 20260502213217 | 51 | 0 | 0.0 | 0.0 | 0.00 | 0.07 | 0.07 | 97 | 1009.0 |
| 20260502212504 | 51 | 0 | 0.0 | 0.0 | 0.00 | 0.07 | 0.07 | 97 | 1008.8 |
| 20260502212221 | 51 | 0 | 0.0 | 0.0 | 0.00 | 0.07 | 0.07 | 97 | 1008.7 |
| 20260502211506 | 51 | 0 | 0.0 | 0.0 | 0.00 | 0.07 | 0.07 | 97 | 1009.0 |
| 20260502211005 | 51 | 0 | 0.0 | 0.0 | 0.00 | 0.07 | 0.07 | 97 | 1008.9 |
| 20260502210504 | 51 | 0 | 0.0 | 0.0 | 0.00 | 0.07 | 0.07 | 97 | 1009.0 |
| 20260502210003 | 51 | 0 | 0.0 | 0.0 | 0.00 | 0.07 | 0.07 | 97 | 1008.9 |
| 20260502205503 | 51 | 0 | 0.0 | 0.0 | 0.00 | 0.07 | 0.07 | 97 | 1008.8 |
| 20260502205003 | 51 | 0 | 0.0 | 0.0 | 0.00 | 0.07 | 0.07 | 97 | 1009.0 |
| 20260502204503 | 51 | 0 | 0.0 | 0.0 | 0.00 | 0.07 | 0.07 | 97 | 1009.0 |
| 20260502204005 | 51 | 0 | 0.0 | 0.0 | 0.00 | 0.07 | 0.07 | 97 | 1008.9 |
| 20260502203505 | 51 | 0 | 0.0 | 0.0 | 0.00 | 0.07 | 0.07 | 97 | 1008.9 |
| 20260502203217 | 51 | 0 | 0.0 | 0.0 | 0.00 | 0.07 | 0.07 | 97 | 1009.0 |
| 20260502202505 | 51 | 0 | 0.0 | 0.0 | 0.00 | 0.07 | 0.07 | 97 | 1009.0 |
| 20260502202005 | 51 | 0 | 0.0 | 0.0 | 0.01 | 0.07 | 0.07 | 96 | 1009.2 |
| 20260502201505 | 52 | 0 | 0.0 | 0.0 | 0.01 | 0.07 | 0.07 | 96 | 1009.0 |
| 20260502201219 | 52 | 0 | 0.0 | 0.0 | 0.01 | 0.07 | 0.07 | 96 | 1008.9 |
| 20260502200505 | 52 | 0 | 0.0 | 0.0 | 0.01 | 0.07 | 0.07 | 96 | 1009.1 |
| 20260502200005 | 52 | 0 | 0.0 | 0.0 | 0.01 | 0.07 | 0.07 | 96 | 1009.0 |
| 20260502195503 | 52 | 0 | 0.0 | 0.0 | 0.01 | 0.07 | 0.07 | 96 | 1009.0 |
| 20260502195006 | 52 | 0 | 0.0 | 0.0 | 0.02 | 0.07 | 0.07 | 96 | 1008.9 |
| 20260502194503 | 52 | 0 | 0.0 | 0.0 | 0.02 | 0.07 | 0.07 | 96 | 1009.1 |
| 20260502194219 | 52 | 0 | 0.0 | 0.0 | 0.02 | 0.07 | 0.07 | 96 | 1009.0 |
| 20260502193720 | 52 | 0 | 0.0 | 0.0 | 0.02 | 0.07 | 0.07 | 96 | 1009.1 |
| 20260502193005 | 52 | 0 | 0.0 | 0.0 | 0.03 | 0.07 | 0.07 | 96 | 1009.0 |
| 20260502192505 | 53 | 0 | 0.0 | 0.0 | 0.03 | 0.07 | 0.07 | 96 | 1009.1 |
| 20260502192003 | 53 | 0 | 0.0 | 0.0 | 0.03 | 0.06 | 0.06 | 95 | 1009.2 |
| 20260502191505 | 53 | 0 | 0.0 | 0.0 | 0.03 | 0.06 | 0.06 | 95 | 1009.4 |
| 20260502191219 | 53 | 0 | 0.0 | 0.0 | 0.03 | 0.06 | 0.06 | 95 | 1009.2 |
| 20260502190505 | 53 | 0 | 0.0 | 0.0 | 0.04 | 0.06 | 0.06 | 95 | 1009.1 |
| 20260502190005 | 53 | 0 | 0.0 | 0.0 | 0.04 | 0.06 | 0.06 | 95 | 1009.4 |
| 20260502185503 | 53 | 0 | 0.0 | 0.0 | 0.04 | 0.06 | 0.06 | 95 | 1009.4 |
| 20260502185003 | 53 | 0 | 0.0 | 0.0 | 0.04 | 0.05 | 0.05 | 95 | 1009.4 |
| 20260502184503 | 53 | 170 | 0.0 | 1.7 | 0.04 | 0.05 | 0.05 | 95 | 1009.4 |
| 20260502184218 | 53 | 170 | 0.0 | 1.7 | 0.04 | 0.05 | 0.05 | 95 | 1009.4 |
| 20260502183503 | 53 | 197 | 0.0 | 1.7 | 0.04 | 0.04 | 0.04 | 94 | 1009.6 |
| 20260502183003 | 53 | 191 | 0.0 | 1.7 | 0.04 | 0.04 | 0.04 | 94 | 1009.6 |
| 20260502182505 | 53 | 156 | 0.9 | 3.5 | 0.04 | 0.04 | 0.04 | 94 | 1009.6 |
| 20260502182005 | 53 | 147 | 0.9 | 6.1 | 0.03 | 0.03 | 0.03 | 93 | 1009.4 |
| 20260502181505 | 53 | 150 | 0.9 | 6.1 | 0.03 | 0.03 | 0.03 | 93 | 1009.6 |
| 20260502181006 | 53 | 164 | 0.0 | 1.7 | 0.02 | 0.02 | 0.02 | 93 | 1009.6 |
| 20260502180723 | 53 | 150 | 0.0 | 3.5 | 0.02 | 0.02 | 0.02 | 93 | 1009.5 |
| 20260502170220 | 55 | 172 | 2.6 | 7.8 | 0.00 | 0.00 | 0.00 | 86 | 1010.0 |
| 20260502164003 | 56 | 183 | 2.6 | 6.1 | 0.00 | 0.00 | 0.00 | 85 | 1010.2 |
| 20260502163505 | 56 | 167 | 2.6 | 6.1 | 0.00 | 0.00 | 0.00 | 84 | 1010.3 |
| 20260502163005 | 56 | 160 | 2.6 | 7.8 | 0.00 | 0.00 | 0.00 | 83 | 1010.2 |
| 20260502162503 | 56 | 166 | 2.6 | 7.8 | 0.00 | 0.00 | 0.00 | 81 | 1010.2 |
| 20260502162219 | 56 | 164 | 2.6 | 7.8 | 0.00 | 0.00 | 0.00 | 81 | 1010.2 |
| 20260502161505 | 56 | 165 | 3.5 | 10.4 | 0.00 | 0.00 | 0.00 | 79 | 1010.2 |
| 20260502161004 | 57 | 174 | 2.6 | 10.4 | 0.00 | 0.00 | 0.00 | 79 | 1010.1 |
| 20260502160505 | 57 | 179 | 3.5 | 10.4 | 0.00 | 0.00 | 0.00 | 79 | 1010.4 |
| 20260502160219 | 57 | 175 | 3.5 | 10.4 | 0.00 | 0.00 | 0.00 | 79 | 1010.3 |
| 20260502152217 | 58 | 206 | 1.7 | 6.1 | 0.00 | 0.00 | 0.00 | 79 | 1010.5 |
| 20260502151503 | 58 | 179 | 2.6 | 6.1 | 0.00 | 0.00 | 0.00 | 78 | 1010.4 |
| 20260502151005 | 59 | 163 | 2.6 | 6.1 | 0.00 | 0.00 | 0.00 | 78 | 1010.6 |
| 20260502150505 | 59 | 159 | 1.7 | 6.1 | 0.00 | 0.00 | 0.00 | 77 | 1010.7 |
| 20260502130719 | 60 | 165 | 3.5 | 10.4 | 0.00 | 0.00 | 0.00 | 74 | 1011.9 |
| 20260502130218 | 60 | 201 | 3.5 | 7.8 | 0.00 | 0.00 | 0.00 | 74 | 1011.9 |
| 20260502123717 | 59 | 183 | 3.5 | 12.2 | 0.00 | 0.00 | 0.00 | 78 | 1012.1 |
| 20260502123005 | 59 | 167 | 4.3 | 12.2 | 0.00 | 0.00 | 0.00 | 79 | 1012.3 |
| 20260502122505 | 58 | 165 | 4.3 | 13.9 | 0.00 | 0.00 | 0.00 | 79 | 1012.2 |
| 20260502122218 | 58 | 172 | 4.3 | 13.9 | 0.00 | 0.00 | 0.00 | 78 | 1012.4 |
| 20260502121505 | 59 | 153 | 6.1 | 12.2 | 0.00 | 0.00 | 0.00 | 77 | 1012.7 |
| 20260502121003 | 59 | 161 | 6.1 | 12.2 | 0.00 | 0.00 | 0.00 | 78 | 1012.5 |
| 20260502120721 | 59 | 182 | 5.2 | 12.2 | 0.00 | 0.00 | 0.00 | 79 | 1012.7 |
| 20260502120219 | 59 | 183 | 3.5 | 12.2 | 0.00 | 0.00 | 0.00 | 77 | 1012.5 |
| 20260502115505 | 59 | 162 | 3.5 | 7.8 | 0.00 | 0.00 | 0.00 | 78 | 1012.5 |
| 20260502115005 | 60 | 134 | 3.5 | 12.2 | 0.00 | 0.00 | 0.00 | 79 | 1012.7 |
| 20260502114721 | 58 | 150 | 4.3 | 12.2 | 0.00 | 0.00 | 0.00 | 78 | 1012.8 |
| 20260502114005 | 58 | 162 | 3.5 | 10.4 | 0.00 | 0.00 | 0.00 | 79 | 1012.7 |
| 20260502113505 | 58 | 155 | 4.3 | 10.4 | 0.00 | 0.00 | 0.00 | 79 | 1012.9 |
| 20260502113218 | 58 | 149 | 4.3 | 10.4 | 0.00 | 0.00 | 0.00 | 79 | 1012.9 |
| 20260502112505 | 57 | 151 | 4.3 | 12.2 | 0.00 | 0.00 | 0.00 | 81 | 1013.0 |
| 20260502112005 | 57 | 163 | 4.3 | 12.2 | 0.00 | 0.00 | 0.00 | 81 | 1013.2 |
| 20260502111505 | 58 | 171 | 4.3 | 12.2 | 0.00 | 0.00 | 0.00 | 81 | 1013.3 |
| 20260502111005 | 57 | 166 | 4.3 | 15.6 | 0.00 | 0.00 | 0.00 | 82 | 1013.3 |
| 20260502110719 | 57 | 158 | 6.1 | 15.6 | 0.00 | 0.00 | 0.00 | 81 | 1013.2 |
| 20260502110005 | 58 | 164 | 5.2 | 12.2 | 0.00 | 0.00 | 0.00 | 80 | 1013.4 |
| 20260502105503 | 58 | 173 | 5.2 | 10.4 | 0.00 | 0.00 | 0.00 | 79 | 1013.7 |
| 20260502105005 | 58 | 184 | 5.2 | 10.4 | 0.00 | 0.00 | 0.00 | 79 | 1013.6 |
| 20260502104505 | 58 | 174 | 4.3 | 10.4 | 0.00 | 0.00 | 0.00 | 79 | 1013.5 |
| 20260502104005 | 58 | 168 | 4.3 | 10.4 | 0.00 | 0.00 | 0.00 | 79 | 1013.5 |
| 20260502103505 | 58 | 171 | 4.3 | 15.6 | 0.00 | 0.00 | 0.00 | 79 | 1013.6 |
| 20260502103005 | 58 | 174 | 4.3 | 15.6 | 0.00 | 0.00 | 0.00 | 79 | 1013.6 |
| 20260502102505 | 58 | 178 | 4.3 | 10.4 | 0.00 | 0.00 | 0.00 | 79 | 1013.5 |
| 20260502102005 | 58 | 166 | 3.5 | 10.4 | 0.00 | 0.00 | 0.00 | 79 | 1013.6 |
| 20260502101505 | 58 | 164 | 4.3 | 10.4 | 0.00 | 0.00 | 0.00 | 78 | 1013.5 |
| 20260502101005 | 58 | 178 | 3.5 | 10.4 | 0.00 | 0.00 | 0.00 | 76 | 1013.6 |
| 20260502100505 | 59 | 178 | 3.5 | 10.4 | 0.00 | 0.00 | 0.00 | 77 | 1013.7 |
| 20260502091503 | 56 | 140 | 6.1 | 15.6 | 0.00 | 0.00 | 0.00 | 83 | 1013.5 |
| 20260502091003 | 56 | 151 | 5.2 | 13.9 | 0.00 | 0.00 | 0.00 | 81 | 1013.5 |
| 20260502090503 | 56 | 176 | 5.2 | 15.6 | 0.00 | 0.00 | 0.00 | 81 | 1013.6 |
| 20260502071504 | 53 | 177 | 4.3 | 10.4 | 0.00 | 0.00 | 0.00 | 93 | 1014.4 |
| 20260502071005 | 53 | 163 | 3.5 | 10.4 | 0.00 | 0.00 | 0.00 | 94 | 1014.1 |
| 20260502070505 | 53 | 165 | 1.7 | 10.4 | 0.00 | 0.00 | 0.00 | 94 | 1014.0 |
| 20260502070005 | 53 | 182 | 0.0 | 6.1 | 0.00 | 0.00 | 0.00 | 95 | 1014.1 |
| 20260502065719 | 53 | 182 | 0.0 | 6.1 | 0.00 | 0.00 | 0.00 | 95 | 1014.2 |
| 20260502065220 | 53 | 158 | 0.0 | 7.8 | 0.00 | 0.00 | 0.00 | 96 | 1014.4 |
| 20260502064719 | 53 | 161 | 0.9 | 7.8 | 0.00 | 0.00 | 0.00 | 96 | 1014.2 |
| 20260502064003 | 52 | 166 | 0.9 | 7.8 | 0.00 | 0.00 | 0.00 | 96 | 1014.4 |
| 20260502063505 | 52 | 158 | 0.9 | 7.8 | 0.00 | 0.00 | 0.00 | 96 | 1014.3 |
| 20260502063005 | 52 | 144 | 0.0 | 6.1 | 0.00 | 0.00 | 0.00 | 96 | 1014.3 |
| 20260502062505 | 52 | 173 | 0.0 | 3.5 | 0.00 | 0.00 | 0.00 | 96 | 1014.3 |
| 20260502062005 | 52 | 175 | 0.0 | 3.5 | 0.00 | 0.00 | 0.00 | 96 | 1014.4 |
| 20260502061006 | 52 | 154 | 0.0 | 3.5 | 0.00 | 0.00 | 0.00 | 97 | 1014.6 |
| 20260502060505 | 52 | 155 | 0.0 | 3.5 | 0.00 | 0.00 | 0.00 | 96 | 1014.5 |
| 20260502060006 | 52 | 162 | 0.0 | 3.5 | 0.00 | 0.00 | 0.00 | 96 | 1014.4 |
| 20260502055506 | 51 | 158 | 0.9 | 3.5 | 0.00 | 0.00 | 0.00 | 96 | 1014.6 |
| 20260502055220 | 51 | 159 | 0.0 | 3.5 | 0.00 | 0.00 | 0.00 | 96 | 1014.7 |
| 20260502054503 | 51 | 0 | 0.0 | 0.0 | 0.00 | 0.00 | 0.00 | 96 | 1014.6 |
| 20260502054005 | 51 | 0 | 0.0 | 0.0 | 0.00 | 0.00 | 0.00 | 96 | 1014.6 |
| 20260502053718 | 51 | 0 | 0.0 | 0.0 | 0.00 | 0.00 | 0.00 | 96 | 1014.6 |
| 20260502053003 | 50 | 0 | 0.0 | 0.0 | 0.00 | 0.00 | 0.00 | 96 | 1014.6 |
| 20260502052505 | 50 | 0 | 0.0 | 0.0 | 0.00 | 0.00 | 0.00 | 96 | 1014.5 |
| 20260502052003 | 50 | 0 | 0.0 | 0.0 | 0.00 | 0.00 | 0.00 | 96 | 1014.6 |
| 20260502051503 | 50 | 0 | 0.0 | 0.0 | 0.00 | 0.00 | 0.00 | 96 | 1014.8 |
| 20260502051005 | 50 | 0 | 0.0 | 0.0 | 0.00 | 0.00 | 0.00 | 96 | 1014.4 |
| 20260502050505 | 50 | 0 | 0.0 | 0.0 | 0.00 | 0.00 | 0.00 | 96 | 1014.6 |
| 20260502050003 | 50 | 0 | 0.0 | 0.0 | 0.00 | 0.00 | 0.00 | 96 | 1014.6 |
| 20260502045718 | 50 | 0 | 0.0 | 0.0 | 0.00 | 0.00 | 0.00 | 96 | 1014.6 |
| 20260502045003 | 50 | 0 | 0.0 | 0.0 | 0.00 | 0.00 | 0.00 | 96 | 1014.7 |
| 20260502044718 | 50 | 0 | 0.0 | 0.0 | 0.00 | 0.00 | 0.00 | 96 | 1014.6 |
| 20260502044003 | 50 | 0 | 0.0 | 0.0 | 0.00 | 0.00 | 0.00 | 96 | 1014.8 |
| 20260502043503 | 49 | 0 | 0.0 | 0.0 | 0.00 | 0.00 | 0.00 | 96 | 1014.7 |
| 20260502043003 | 49 | 0 | 0.0 | 0.0 | 0.00 | 0.00 | 0.00 | 96 | 1014.6 |
| 20260502042503 | 50 | 0 | 0.0 | 0.0 | 0.00 | 0.00 | 0.00 | 96 | 1014.5 |
| 20260502042005 | 50 | 0 | 0.0 | 0.0 | 0.00 | 0.00 | 0.00 | 96 | 1014.6 |
| 20260502041505 | 50 | 0 | 0.0 | 0.0 | 0.00 | 0.00 | 0.00 | 96 | 1014.7 |
| 20260502041003 | 50 | 0 | 0.0 | 0.0 | 0.00 | 0.00 | 0.00 | 96 | 1014.9 |
| 20260502040720 | 50 | 0 | 0.0 | 0.0 | 0.00 | 0.00 | 0.00 | 96 | 1014.7 |
| 20260502040005 | 50 | 0 | 0.0 | 0.0 | 0.00 | 0.00 | 0.00 | 96 | 1014.8 |
| 20260502035503 | 50 | 0 | 0.0 | 0.0 | 0.00 | 0.00 | 0.00 | 96 | 1014.9 |
| 20260502035005 | 50 | 0 | 0.0 | 0.0 | 0.00 | 0.00 | 0.00 | 96 | 1014.7 |
| 20260502034505 | 51 | 0 | 0.0 | 0.0 | 0.00 | 0.00 | 0.00 | 96 | 1014.9 |
| 20260502034005 | 51 | 0 | 0.0 | 0.0 | 0.00 | 0.00 | 0.00 | 96 | 1014.8 |
| 20260502033505 | 51 | 0 | 0.0 | 0.0 | 0.00 | 0.00 | 0.00 | 96 | 1014.9 |
| 20260502033003 | 51 | 0 | 0.0 | 0.0 | 0.00 | 0.00 | 0.00 | 96 | 1014.9 |
| 20260502032503 | 51 | 0 | 0.0 | 0.0 | 0.00 | 0.00 | 0.00 | 96 | 1015.1 |
| 20260502032006 | 51 | 0 | 0.0 | 0.0 | 0.00 | 0.00 | 0.00 | 96 | 1015.1 |
| 20260502031505 | 51 | 0 | 0.0 | 0.0 | 0.00 | 0.00 | 0.00 | 96 | 1015.0 |
| 20260502031005 | 51 | 0 | 0.0 | 0.0 | 0.00 | 0.00 | 0.00 | 96 | 1015.3 |
| 20260502030503 | 51 | 0 | 0.0 | 0.0 | 0.00 | 0.00 | 0.00 | 96 | 1015.3 |
| 20260502030218 | 51 | 0 | 0.0 | 0.0 | 0.00 | 0.00 | 0.00 | 96 | 1015.3 |
| 20260502025505 | 51 | 0 | 0.0 | 0.0 | 0.00 | 0.00 | 0.00 | 96 | 1015.4 |
| 20260502025005 | 51 | 0 | 0.0 | 0.0 | 0.00 | 0.00 | 0.00 | 96 | 1015.2 |
| 20260502024717 | 51 | 169 | 0.0 | 3.5 | 0.00 | 0.00 | 0.00 | 96 | 1015.4 |
| 20260502024005 | 51 | 175 | 0.0 | 3.5 | 0.00 | 0.00 | 0.00 | 96 | 1015.5 |
| 20260502023503 | 51 | 159 | 0.9 | 3.5 | 0.00 | 0.00 | 0.00 | 96 | 1015.6 |
| 20260502023005 | 51 | 159 | 0.9 | 3.5 | 0.00 | 0.00 | 0.00 | 96 | 1015.5 |
| 20260502022503 | 51 | 0 | 0.0 | 0.0 | 0.00 | 0.00 | 0.00 | 96 | 1015.6 |
| 20260502022003 | 51 | 0 | 0.0 | 0.0 | 0.00 | 0.00 | 0.00 | 96 | 1015.8 |
| 20260502021505 | 51 | 168 | 0.0 | 3.5 | 0.00 | 0.00 | 0.00 | 96 | 1015.5 |
| 20260502021005 | 51 | 169 | 0.9 | 6.1 | 0.00 | 0.00 | 0.00 | 95 | 1015.7 |
| 20260502020506 | 51 | 170 | 0.9 | 6.1 | 0.00 | 0.00 | 0.00 | 95 | 1015.9 |
| 20260502020005 | 51 | 166 | 0.0 | 1.7 | 0.00 | 0.00 | 0.00 | 95 | 1015.6 |
| 20260502015505 | 52 | 165 | 0.0 | 1.7 | 0.00 | 0.00 | 0.00 | 95 | 1015.8 |
| 20260502015003 | 52 | 165 | 0.0 | 1.7 | 0.00 | 0.00 | 0.00 | 95 | 1015.8 |
| 20260502014719 | 52 | 186 | 0.0 | 3.5 | 0.00 | 0.00 | 0.00 | 95 | 1016.1 |
| 20260502014005 | 52 | 192 | 0.0 | 3.5 | 0.00 | 0.00 | 0.00 | 95 | 1016.0 |
| 20260502013717 | 52 | 0 | 0.0 | 0.0 | 0.00 | 0.00 | 0.00 | 95 | 1016.0 |
| 20260502013005 | 52 | 144 | 0.0 | 1.7 | 0.00 | 0.00 | 0.00 | 95 | 1016.2 |
| 20260502012503 | 52 | 163 | 0.0 | 6.1 | 0.00 | 0.00 | 0.00 | 94 | 1016.1 |
| 20260502012005 | 52 | 167 | 0.9 | 6.1 | 0.00 | 0.00 | 0.00 | 94 | 1016.3 |
| 20260502011505 | 52 | 180 | 0.9 | 3.5 | 0.00 | 0.00 | 0.00 | 94 | 1016.3 |
| 20260502011003 | 52 | 184 | 0.0 | 3.5 | 0.00 | 0.00 | 0.00 | 94 | 1016.4 |
| 20260502010504 | 52 | 190 | 0.9 | 3.5 | 0.00 | 0.00 | 0.00 | 94 | 1016.5 |
| 20260502010005 | 52 | 190 | 0.9 | 3.5 | 0.00 | 0.00 | 0.00 | 94 | 1016.6 |
| 20260502005503 | 52 | 0 | 0.0 | 0.0 | 0.00 | 0.00 | 0.00 | 94 | 1016.6 |
| 20260502005005 | 52 | 0 | 0.0 | 0.0 | 0.00 | 0.00 | 0.00 | 94 | 1016.8 |
| 20260502004503 | 52 | 0 | 0.0 | 0.0 | 0.00 | 0.00 | 0.00 | 94 | 1016.8 |
| 20260502004005 | 52 | 0 | 0.0 | 0.0 | 0.00 | 0.00 | 0.00 | 94 | 1017.0 |
| 20260502003503 | 52 | 0 | 0.0 | 0.0 | 0.00 | 0.00 | 0.00 | 94 | 1016.8 |
| 20260502003219 | 52 | 0 | 0.0 | 0.0 | 0.00 | 0.00 | 0.00 | 94 | 1016.7 |
| 20260502002505 | 52 | 0 | 0.0 | 0.0 | 0.00 | 0.00 | 0.00 | 94 | 1016.8 |
| 20260502002003 | 52 | 0 | 0.0 | 0.0 | 0.00 | 0.00 | 0.00 | 94 | 1016.8 |
| 20260502001718 | 53 | 0 | 0.0 | 0.0 | 0.00 | 0.00 | 0.00 | 94 | 1016.9 |
| 20260502001003 | 53 | 187 | 0.0 | 1.7 | 0.00 | 0.00 | 0.00 | 94 | 1016.7 |
| 20260502000505 | 53 | 178 | 0.0 | 3.5 | 0.00 | 0.00 | 0.00 | 94 | 1016.9 |
| 20260502000005 | 53 | 170 | 0.0 | 3.5 | 0.00 | 0.00 | 0.00 | 94 | 1016.8 |
| 20260501235718 | 53 | 170 | 0.0 | 3.5 | 0.00 | 0.00 | 0.00 | 94 | 1016.8 |
| 20260501235003 | 53 | 160 | 0.0 | 1.7 | 0.00 | 0.00 | 0.00 | 94 | 1017.0 |
| 20260501234503 | 53 | 160 | 0.0 | 1.7 | 0.00 | 0.00 | 0.00 | 94 | 1016.8 |
| 20260501234005 | 53 | 158 | 0.9 | 3.5 | 0.00 | 0.00 | 0.00 | 94 | 1016.7 |
| 20260501233506 | 53 | 159 | 0.0 | 3.5 | 0.00 | 0.00 | 0.00 | 94 | 1016.7 |
| 20260501233003 | 53 | 170 | 0.0 | 3.5 | 0.00 | 0.00 | 0.00 | 94 | 1017.2 |
| 20260501232512 | 53 | 171 | 0.0 | 3.5 | 0.00 | 0.00 | 0.00 | 94 | 1017.1 |
| 20260501232005 | 52 | 0 | 0.0 | 0.0 | 0.00 | 0.00 | 0.00 | 94 | 1017.3 |
| 20260501231503 | 52 | 169 | 0.0 | 3.5 | 0.00 | 0.00 | 0.00 | 94 | 1017.2 |
| 20260501231005 | 53 | 171 | 0.9 | 3.5 | 0.00 | 0.00 | 0.00 | 94 | 1017.2 |
| 20260501230505 | 53 | 177 | 0.9 | 3.5 | 0.00 | 0.00 | 0.00 | 94 | 1017.2 |
| 20260501230006 | 53 | 182 | 0.9 | 6.1 | 0.00 | 0.00 | 0.00 | 94 | 1017.2 |
| 20260501225505 | 53 | 187 | 0.9 | 6.1 | 0.00 | 0.00 | 0.00 | 94 | 1017.2 |
| 20260501225217 | 53 | 192 | 0.9 | 6.1 | 0.00 | 0.00 | 0.00 | 94 | 1017.4 |
| 20260501224503 | 53 | 187 | 0.9 | 3.5 | 0.00 | 0.00 | 0.00 | 94 | 1017.5 |
| 20260501224005 | 53 | 177 | 1.7 | 6.1 | 0.00 | 0.00 | 0.00 | 94 | 1017.4 |
| 20260501223720 | 53 | 166 | 1.7 | 6.1 | 0.00 | 0.00 | 0.00 | 94 | 1017.1 |
| 20260501223219 | 53 | 164 | 1.7 | 3.5 | 0.00 | 0.00 | 0.00 | 94 | 1017.3 |
| 20260501222505 | 53 | 175 | 0.9 | 3.5 | 0.00 | 0.00 | 0.00 | 94 | 1017.4 |
| 20260501222003 | 53 | 176 | 0.9 | 3.5 | 0.00 | 0.00 | 0.00 | 94 | 1017.2 |
| 20260501221503 | 53 | 189 | 0.9 | 3.5 | 0.00 | 0.00 | 0.00 | 94 | 1017.3 |